Time;durP1;ratioP1;P1;durP2;ratioP2;P2;SDS_P1;SDS_P2;PMS_P1;PMS_P2;Temp;Humidity;BMP_temperature;BMP_pressure;BME280_temperature;BME280_humidity;BME280_pressure;Samples;Min_cycle;Max_cycle;Signal;HPM_P1;HPM_P2
2021/07/09 00:01:35;;;;;;;4.13;3.20;;;17.20;99.90;;;;;;4918347;29;20458;-88
2021/07/09 00:04:03;;;;;;;7.50;3.70;;;17.20;99.90;;;;;;4917864;29;20463;-88
2021/07/09 00:06:32;;;;;;;4.20;3.73;;;17.30;99.90;;;;;;4931314;29;20471;-87
2021/07/09 00:09:01;;;;;;;4.07;3.67;;;17.20;99.90;;;;;;4937646;28;20510;-88
2021/07/09 07:57:28;;;;;;;7.33;6.63;;;18.50;99.90;;;;;;5301455;23;20491;-83
2021/07/09 07:59:55;;;;;;;8.07;6.60;;;18.50;99.90;;;;;;4889213;29;20448;-83
2021/07/09 08:02:22;;;;;;;6.70;6.20;;;18.50;99.90;;;;;;4889346;29;20453;-83
2021/07/09 08:04:49;;;;;;;6.00;5.50;;;18.60;99.90;;;;;;4893995;29;20466;-83
2021/07/09 08:07:16;;;;;;;7.27;5.60;;;18.70;99.90;;;;;;4891521;29;20503;-83
2021/07/09 08:09:43;;;;;;;6.97;6.37;;;18.80;99.90;;;;;;4888873;29;20468;-83
2021/07/09 08:12:10;;;;;;;6.23;5.67;;;19.00;99.90;;;;;;4888956;29;20446;-83
2021/07/09 08:14:38;;;;;;;5.83;5.33;;;19.20;99.90;;;;;;4887958;29;20456;-83
2021/07/09 08:17:05;;;;;;;6.73;6.13;;;19.40;99.90;;;;;;4887123;29;20494;-83
2021/07/09 08:19:33;;;;;;;6.50;5.47;;;19.50;99.90;;;;;;4887559;29;20466;-82
2021/07/09 08:21:59;;;;;;;6.10;5.50;;;19.70;99.90;;;;;;4888031;29;20522;-83
2021/07/09 08:24:26;;;;;;;5.93;5.40;;;19.80;99.90;;;;;;4884562;29;20525;-82
2021/07/09 08:26:53;;;;;;;7.00;6.10;;;19.80;99.90;;;;;;4880536;29;20486;-86
2021/07/09 08:29:20;;;;;;;5.90;5.40;;;19.90;99.90;;;;;;4883973;29;20430;-86
2021/07/09 08:31:48;;;;;;;5.87;5.30;;;19.90;99.90;;;;;;4896707;29;20447;-86
2021/07/09 08:34:15;;;;;;;5.37;4.97;;;20.00;99.90;;;;;;4883856;29;20477;-86
2021/07/09 08:36:42;;;;;;;5.93;5.33;;;20.30;99.90;;;;;;4881678;29;20487;-86
2021/07/09 08:39:08;;;;;;;6.00;5.50;;;20.50;99.90;;;;;;4904062;29;20443;-86
2021/07/09 08:41:35;;;;;;;6.00;5.60;;;20.80;99.90;;;;;;4884394;29;20456;-86
2021/07/09 08:44:02;;;;;;;6.00;5.60;;;21.10;99.90;;;;;;4879851;29;20949;-86
2021/07/09 08:46:29;;;;;;;5.33;4.93;;;21.20;99.90;;;;;;4879715;29;20488;-85
2021/07/09 08:48:58;;;;;;;5.40;5.00;;;21.40;99.90;;;;;;4878428;29;20458;-86
2021/07/09 08:51:24;;;;;;;8.50;5.37;;;21.60;99.90;;;;;;4861212;29;20462;-86
2021/07/09 08:53:51;;;;;;;5.70;5.10;;;21.70;99.90;;;;;;4862272;29;20474;-85
2021/07/09 08:56:18;;;;;;;6.73;6.13;;;21.50;99.90;;;;;;4860945;29;20462;-85
2021/07/09 08:58:45;;;;;;;7.50;5.60;;;21.50;99.90;;;;;;4861338;29;20489;-86
2021/07/09 09:01:14;;;;;;;8.83;6.63;;;21.50;99.90;;;;;;4876363;29;20903;-85
2021/07/09 09:03:41;;;;;;;8.30;7.50;;;21.60;99.90;;;;;;4880323;29;20476;-85
2021/07/09 09:06:14;;;;;;;7.10;6.50;;;21.80;99.90;;;;;;4879780;29;20915;-86
2021/07/09 09:08:41;;;;;;;8.43;6.10;;;22.00;99.90;;;;;;4881050;29;20484;-86
2021/07/09 09:11:08;;;;;;;6.03;5.53;;;22.20;99.90;;;;;;4881617;29;20461;-85
2021/07/09 09:13:37;;;;;;;6.20;5.70;;;22.00;99.90;;;;;;4879832;29;20516;-85
2021/07/09 09:16:06;;;;;;;6.27;5.70;;;22.20;99.90;;;;;;4879932;29;20454;-85
2021/07/09 09:18:34;;;;;;;5.93;5.50;;;22.30;99.90;;;;;;4887285;29;20493;-85
2021/07/09 09:21:03;;;;;;;6.50;5.90;;;22.60;99.90;;;;;;4899311;29;20449;-85
2021/07/09 09:23:35;;;;;;;6.10;5.50;;;22.80;99.90;;;;;;4880994;29;20461;-85
2021/07/09 09:26:03;;;;;;;6.10;5.50;;;23.20;99.90;;;;;;4880185;29;21171;-86
2021/07/09 09:28:31;;;;;;;6.33;5.83;;;23.50;99.90;;;;;;4879674;29;20863;-85
2021/07/09 09:30:58;;;;;;;5.73;4.83;;;23.80;99.90;;;;;;4879507;29;20991;-86
2021/07/09 09:33:32;;;;;;;5.20;4.80;;;24.30;99.90;;;;;;4879286;29;20524;-86
2021/07/09 09:35:59;;;;;;;5.60;5.10;;;24.80;99.90;;;;;;4880660;29;20507;-86
2021/07/09 09:38:28;;;;;;;4.90;4.50;;;25.50;99.90;;;;;;4881509;29;20492;-86
2021/07/09 09:40:58;;;;;;;6.60;5.93;;;25.60;99.40;;;;;;4879885;29;20832;-86
2021/07/09 09:43:26;;;;;;;6.13;5.53;;;25.60;98.70;;;;;;4879607;29;20455;-86
2021/07/09 09:45:59;;;;;;;7.20;6.60;;;25.70;98.70;;;;;;4879931;29;20459;-86
2021/07/09 09:48:38;;;;;;;6.13;5.23;;;25.40;98.50;;;;;;4879758;29;20477;-86
2021/07/09 09:51:23;;;;;;;6.17;5.47;;;25.50;97.70;;;;;;4879511;29;20456;-86
2021/07/09 09:53:53;;;;;;;6.30;5.83;;;25.50;96.60;;;;;;4879293;29;20697;-86
2021/07/09 09:56:33;;;;;;;5.93;5.20;;;25.90;97.40;;;;;;4879129;29;20488;-85
2021/07/09 09:59:14;;;;;;;5.70;5.30;;;26.20;95.60;;;;;;4879605;29;20491;-86
2021/07/09 10:01:47;;;;;;;6.03;5.03;;;26.30;95.40;;;;;;4880198;29;20452;-87
2021/07/09 10:04:14;;;;;;;5.40;4.67;;;26.00;94.90;;;;;;4879749;29;20463;-86
2021/07/09 10:06:42;;;;;;;5.67;4.67;;;25.60;95.70;;;;;;4879172;29;20493;-86
2021/07/09 10:09:10;;;;;;;4.90;4.40;;;25.90;95.30;;;;;;4881912;29;20456;-87
2021/07/09 10:11:39;;;;;;;4.77;4.47;;;26.10;93.90;;;;;;4898541;29;20492;-86
2021/07/09 10:14:09;;;;;;;4.30;4.00;;;25.70;93.50;;;;;;4900189;29;20444;-86
2021/07/09 10:16:36;;;;;;;5.00;4.60;;;25.50;93.80;;;;;;4898961;29;20476;-86
2021/07/09 10:19:05;;;;;;;5.50;5.10;;;25.50;94.10;;;;;;4896639;29;20488;-86
2021/07/09 10:21:35;;;;;;;5.53;5.03;;;25.50;94.50;;;;;;4890101;29;20922;-86
2021/07/09 10:24:02;;;;;;;4.30;4.00;;;25.60;94.70;;;;;;4885424;29;20939;-86
2021/07/09 10:26:29;;;;;;;8.07;4.53;;;25.50;94.10;;;;;;4880918;29;20472;-86
2021/07/09 10:29:13;;;;;;;4.17;3.83;;;25.80;93.90;;;;;;4879686;29;20452;-86
2021/07/09 10:31:43;;;;;;;5.20;4.80;;;26.90;91.20;;;;;;4886443;29;20457;-86
2021/07/09 10:34:34;;;;;;;5.03;4.63;;;27.60;90.00;;;;;;4884613;29;20896;-87
2021/07/09 10:37:04;;;;;;;5.33;4.80;;;28.10;86.20;;;;;;4879711;29;20470;-87
2021/07/09 10:39:41;;;;;;;5.63;5.23;;;28.00;86.90;;;;;;4878869;29;20506;-87
2021/07/09 10:42:18;;;;;;;5.17;4.87;;;27.90;87.20;;;;;;4879630;29;20862;-86
2021/07/09 10:45:18;;;;;;;5.90;5.50;;;28.20;86.10;;;;;;4887037;29;20458;-86
2021/07/09 10:47:48;;;;;;;5.30;4.90;;;29.00;83.40;;;;;;4891890;29;20483;-87
2021/07/09 10:50:16;;;;;;;5.13;4.70;;;30.40;78.40;;;;;;4897542;29;20456;-87
2021/07/09 10:52:48;;;;;;;5.10;4.70;;;30.60;75.60;;;;;;4878143;29;20456;-87
2021/07/09 10:55:36;;;;;;;6.20;5.70;;;29.60;74.80;;;;;;4878922;29;20485;-87
2021/07/09 10:58:28;;;;;;;7.57;6.87;;;28.60;78.80;;;;;;4878913;29;20547;-87
2021/07/09 11:00:59;;;;;;;6.77;6.20;;;28.90;80.70;;;;;;4878568;29;20508;-87
2021/07/09 11:03:32;;;;;;;5.70;5.30;;;30.60;77.70;;;;;;4880692;29;20540;-87
2021/07/09 11:06:01;;;;;;;6.00;5.43;;;32.00;71.60;;;;;;4878329;29;20505;-87
2021/07/09 11:08:40;;;;;;;7.80;7.10;;;32.70;67.90;;;;;;4878914;29;20564;-87
2021/07/09 11:11:08;;;;;;;6.77;6.23;;;33.10;64.30;;;;;;4880649;29;20456;-87
2021/07/09 11:13:49;;;;;;;6.30;5.70;;;33.70;62.30;;;;;;4891539;29;20461;-87
2021/07/09 11:16:26;;;;;;;6.10;5.50;;;34.90;58.70;;;;;;4903231;29;20465;-87
2021/07/09 11:18:56;;;;;;;7.73;7.23;;;36.30;54.80;;;;;;4882460;29;20492;-87
2021/07/09 11:21:44;;;;;;;6.67;6.07;;;36.90;52.60;;;;;;4882739;29;20502;-87
2021/07/09 11:24:14;;;;;;;7.43;5.57;;;38.10;50.10;;;;;;4882679;29;20456;-87
2021/07/09 11:26:43;;;;;;;6.23;5.57;;;37.00;49.20;;;;;;4883319;29;20468;-87
2021/07/09 11:29:22;;;;;;;6.43;5.83;;;35.30;51.70;;;;;;4890871;29;20440;-87
2021/07/09 11:31:58;;;;;;;6.10;5.60;;;34.10;54.40;;;;;;4894921;29;20444;-87
2021/07/09 11:34:27;;;;;;;5.97;5.47;;;35.10;53.30;;;;;;4893328;29;20949;-85
2021/07/09 11:36:56;;;;;;;6.60;6.00;;;34.60;54.00;;;;;;4890042;29;20472;-86
2021/07/09 11:39:25;;;;;;;6.50;6.00;;;34.60;54.00;;;;;;4893931;29;20483;-85
2021/07/09 11:41:54;;;;;;;6.87;6.33;;;33.90;54.00;;;;;;4896090;29;20460;-83
2021/07/09 11:44:22;;;;;;;6.63;6.10;;;32.40;55.40;;;;;;4897326;29;20676;-84
2021/07/09 11:46:54;;;;;;;12.80;7.00;;;30.80;58.70;;;;;;4890975;29;20461;-84
2021/07/09 11:49:22;;;;;;;10.47;9.40;;;29.30;63.80;;;;;;4891917;29;20455;-85
2021/07/09 11:51:51;;;;;;;12.50;11.20;;;28.10;69.40;;;;;;4891648;29;20455;-84
2021/07/09 11:54:22;;;;;;;9.77;8.87;;;27.60;72.70;;;;;;4890236;29;20450;-85
2021/07/09 11:56:53;;;;;;;8.67;7.90;;;29.50;68.60;;;;;;4888289;29;20484;-84
2021/07/09 11:59:21;;;;;;;10.83;7.30;;;31.80;63.60;;;;;;4889911;29;20500;-82
2021/07/09 12:02:11;;;;;;;10.30;9.40;;;30.90;61.10;;;;;;4887742;29;20460;-87
2021/07/09 12:04:40;;;;;;;10.23;9.40;;;28.80;70.50;;;;;;4882707;29;20452;-86
2021/07/09 12:07:18;;;;;;;9.67;8.70;;;27.20;79.80;;;;;;4883114;29;20851;-87
2021/07/09 12:09:48;;;;;;;10.17;9.20;;;25.70;84.00;;;;;;4883705;29;20457;-87
2021/07/09 12:12:16;;;;;;;13.43;10.20;;;24.90;90.40;;;;;;4883582;29;20451;-86
2021/07/09 12:14:51;;;;;;;12.77;10.73;;;25.90;91.10;;;;;;4883268;29;20453;-86
2021/07/09 12:17:22;;;;;;;10.53;9.47;;;28.90;83.20;;;;;;4894849;29;20488;-86
2021/07/09 12:19:54;;;;;;;9.60;8.77;;;30.90;74.80;;;;;;4891009;29;20484;-87
2021/07/09 12:22:23;;;;;;;10.63;9.73;;;31.50;69.80;;;;;;4884810;29;20981;-86
2021/07/09 12:24:52;;;;;;;9.67;9.00;;;32.40;67.10;;;;;;4883966;29;20461;-87
2021/07/09 12:27:20;;;;;;;10.10;9.30;;;32.90;63.00;;;;;;4886698;29;20476;-87
2021/07/09 12:29:48;;;;;;;10.10;9.20;;;32.00;63.70;;;;;;4882895;29;20456;-87
2021/07/09 12:32:15;;;;;;;10.67;9.80;;;30.40;68.20;;;;;;4881606;29;20448;-87
2021/07/09 12:34:44;;;;;;;10.27;9.30;;;29.40;70.70;;;;;;4883224;29;20532;-86
2021/07/09 12:37:12;;;;;;;10.90;10.10;;;28.60;74.70;;;;;;4885172;29;20488;-86
2021/07/09 12:39:40;;;;;;;10.77;9.80;;;27.90;76.40;;;;;;4893600;29;20490;-86
2021/07/09 12:42:14;;;;;;;9.70;9.00;;;27.70;78.90;;;;;;4890009;29;20829;-86
2021/07/09 12:44:55;;;;;;;9.13;7.93;;;27.90;77.40;;;;;;4890479;29;20455;-86
2021/07/09 12:47:22;;;;;;;9.23;8.40;;;28.50;76.40;;;;;;4879965;29;20480;-86
2021/07/09 12:49:50;;;;;;;8.30;7.60;;;30.80;70.80;;;;;;4886860;29;20462;-86
2021/07/09 12:52:18;;;;;;;6.60;5.70;;;33.50;63.30;;;;;;4899963;29;20468;-86
2021/07/09 12:54:45;;;;;;;6.60;6.10;;;34.90;57.40;;;;;;4901138;29;20440;-86
2021/07/09 12:57:11;;;;;;;7.53;6.87;;;35.60;55.60;;;;;;4897997;29;20483;-86
2021/07/09 12:59:38;;;;;;;7.33;6.73;;;36.40;53.10;;;;;;4903670;29;20496;-88
2021/07/09 13:02:06;;;;;;;8.10;7.50;;;37.10;52.10;;;;;;4888090;29;20457;-87
2021/07/09 13:04:35;;;;;;;6.77;6.23;;;35.20;53.00;;;;;;4883585;29;20460;-85
2021/07/09 13:07:09;;;;;;;7.73;5.63;;;33.90;55.60;;;;;;4894784;29;20479;-86
2021/07/09 13:09:36;;;;;;;6.50;6.00;;;34.40;53.40;;;;;;4898111;29;20449;-86
2021/07/09 13:12:14;;;;;;;6.23;5.67;;;35.00;53.00;;;;;;4884825;29;20488;-86
2021/07/09 13:14:57;;;;;;;4.90;4.50;;;35.70;51.30;;;;;;4885128;29;20480;-86
2021/07/09 13:20:05;;;;;;;4.77;4.37;;;36.50;47.00;;;;;;4898811;24;20496;-87
2021/07/09 13:22:48;;;;;;;5.50;5.00;;;34.50;50.00;;;;;;4884656;29;20802;-87
2021/07/09 13:25:30;;;;;;;6.70;6.10;;;32.20;55.20;;;;;;4883131;29;20448;-87
2021/07/09 13:28:08;;;;;;;7.83;7.27;;;30.20;61.00;;;;;;4881912;29;20562;-87
2021/07/09 13:30:53;;;;;;;7.00;6.30;;;28.70;66.50;;;;;;4881971;29;20923;-87
2021/07/09 13:33:30;;;;;;;8.33;6.40;;;27.90;70.90;;;;;;4861749;29;20457;-86
2021/07/09 13:36:12;;;;;;;8.23;7.43;;;27.70;72.80;;;;;;4862859;29;20451;-87
2021/07/09 13:38:40;;;;;;;6.73;6.23;;;27.30;73.80;;;;;;4862710;29;20663;-86
2021/07/09 13:41:07;;;;;;;6.30;5.90;;;27.10;74.90;;;;;;4872742;29;20839;-84
2021/07/09 13:43:34;;;;;;;6.60;6.00;;;27.20;76.10;;;;;;4888874;29;20461;-85
2021/07/09 13:46:02;;;;;;;6.40;6.00;;;27.30;76.30;;;;;;4887407;29;20458;-85
2021/07/09 13:48:28;;;;;;;8.10;6.93;;;27.20;76.80;;;;;;4888176;29;20478;-83
2021/07/09 13:50:55;;;;;;;7.57;6.90;;;27.10;75.80;;;;;;4888037;29;20454;-85
2021/07/09 13:53:22;;;;;;;8.43;7.00;;;27.20;76.60;;;;;;4887332;29;20454;-85
2021/07/09 13:55:50;;;;;;;9.00;6.80;;;27.50;76.90;;;;;;4886894;29;20454;-86
2021/07/09 13:58:17;;;;;;;9.43;7.63;;;27.50;76.60;;;;;;4895584;29;20463;-83
2021/07/09 14:00:44;;;;;;;7.73;7.03;;;27.50;75.50;;;;;;4896655;29;20486;-83
2021/07/09 14:03:10;;;;;;;5.97;5.47;;;27.50;75.30;;;;;;4872731;29;20470;-83
2021/07/09 14:05:37;;;;;;;5.90;5.43;;;28.50;72.70;;;;;;4878748;29;20471;-85
2021/07/09 14:08:05;;;;;;;5.50;5.10;;;28.30;70.40;;;;;;4887625;29;20521;-84
2021/07/09 14:10:32;;;;;;;5.00;4.60;;;27.80;70.00;;;;;;4887942;29;20451;-85
2021/07/09 14:13:00;;;;;;;4.93;4.30;;;27.00;71.60;;;;;;4886896;29;20456;-87
2021/07/09 14:15:30;;;;;;;5.00;4.40;;;26.30;74.10;;;;;;4887735;29;20963;-84
2021/07/09 14:17:58;;;;;;;4.30;4.00;;;25.90;75.10;;;;;;4887936;29;20796;-84
2021/07/09 14:20:24;;;;;;;3.77;3.47;;;26.10;73.70;;;;;;4885212;29;20495;-84
2021/07/09 14:22:51;;;;;;;4.00;3.70;;;27.80;69.70;;;;;;4888524;29;20457;-84
2021/07/09 14:25:18;;;;;;;4.60;4.20;;;29.10;61.90;;;;;;4892133;29;20459;-85
2021/07/09 14:27:45;;;;;;;4.63;4.20;;;30.00;59.60;;;;;;4889246;29;20468;-84
2021/07/09 14:30:14;;;;;;;4.70;4.30;;;30.70;58.10;;;;;;4888004;29;20455;-85
2021/07/09 14:32:42;;;;;;;5.83;5.43;;;29.80;57.60;;;;;;4889574;29;20459;-85
2021/07/09 14:35:09;;;;;;;5.10;4.70;;;28.80;60.30;;;;;;4888191;29;20548;-84
2021/07/09 14:37:36;;;;;;;5.70;5.20;;;28.20;63.20;;;;;;4888809;29;20479;-84
2021/07/09 14:40:04;;;;;;;6.20;5.70;;;27.80;64.70;;;;;;4887763;29;20494;-83
2021/07/09 14:42:30;;;;;;;6.60;6.10;;;27.40;69.30;;;;;;4888808;29;20466;-84
2021/07/09 14:44:57;;;;;;;7.20;6.50;;;27.10;72.10;;;;;;4887747;29;20450;-85
2021/07/09 14:47:25;;;;;;;6.03;5.63;;;27.00;73.30;;;;;;4891714;29;20479;-84
2021/07/09 14:49:52;;;;;;;5.43;4.93;;;26.70;73.30;;;;;;4890771;29;20453;-84
2021/07/09 14:52:19;;;;;;;6.07;4.83;;;26.60;73.00;;;;;;4896464;29;20459;-84
2021/07/09 14:54:45;;;;;;;4.30;4.00;;;26.30;71.30;;;;;;4895934;29;20512;-83
2021/07/09 14:57:12;;;;;;;4.43;4.03;;;26.20;71.10;;;;;;4898399;29;20456;-82
2021/07/09 14:59:39;;;;;;;4.23;3.83;;;25.90;71.00;;;;;;4902226;29;20504;-82
2021/07/09 15:02:06;;;;;;;3.57;3.37;;;25.70;71.60;;;;;;4888020;29;20499;-83
2021/07/09 15:04:34;;;;;;;5.00;3.70;;;25.60;71.80;;;;;;4893631;29;20452;-84
2021/07/09 15:07:02;;;;;;;3.50;3.20;;;25.60;72.20;;;;;;4895847;29;20461;-81
2021/07/09 15:09:29;;;;;;;4.40;4.00;;;25.50;72.40;;;;;;4892748;29;20452;-82
2021/07/09 15:11:56;;;;;;;4.40;4.10;;;25.50;72.50;;;;;;4881613;29;20445;-83
2021/07/09 15:14:22;;;;;;;4.40;4.03;;;25.40;72.90;;;;;;4879684;29;20453;-83
2021/07/09 15:16:49;;;;;;;4.50;4.20;;;25.30;74.30;;;;;;4879844;29;20469;-85
2021/07/09 15:19:16;;;;;;;4.73;4.33;;;25.20;74.80;;;;;;4886287;29;20480;-82
2021/07/09 15:21:44;;;;;;;5.47;4.97;;;25.10;75.70;;;;;;4897633;29;20468;-84
2021/07/09 15:24:11;;;;;;;4.50;4.17;;;25.10;76.40;;;;;;4898576;29;20459;-84
2021/07/09 15:26:37;;;;;;;4.47;4.17;;;24.90;76.70;;;;;;4898666;29;20472;-84
2021/07/09 15:29:04;;;;;;;5.77;4.80;;;24.70;77.80;;;;;;4901470;29;20447;-83
2021/07/09 15:31:31;;;;;;;6.90;4.40;;;24.60;79.00;;;;;;4899482;29;20448;-83
2021/07/09 15:33:58;;;;;;;4.03;3.83;;;24.60;79.60;;;;;;4896436;29;20448;-83
2021/07/09 15:36:25;;;;;;;6.70;6.07;;;24.60;79.60;;;;;;4894422;29;20452;-85
2021/07/09 15:38:53;;;;;;;4.73;4.30;;;24.60;80.40;;;;;;4898895;29;20523;-85
2021/07/09 15:41:19;;;;;;;4.90;4.60;;;24.60;80.40;;;;;;4896992;29;20443;-86
2021/07/09 15:43:46;;;;;;;4.90;4.50;;;24.80;81.10;;;;;;4892140;29;20977;-84
2021/07/09 15:46:13;;;;;;;5.40;4.90;;;24.80;80.60;;;;;;4887357;29;20504;-85
2021/07/09 15:51:33;;;;;;;5.30;4.90;;;24.90;80.70;;;;;;4901122;29;20490;-92
2021/07/09 15:54:18;;;;;;;6.87;4.77;;;24.80;80.70;;;;;;4903235;29;20447;-93
2021/07/09 16:00:06;;;;;;;5.53;5.13;;;24.70;80.80;;;;;;4893664;29;20497;-93
2021/07/09 16:05:43;;;;;;;5.10;4.70;;;24.50;80.60;;;;;;4900511;29;20471;-93
2021/07/09 16:11:05;;;;;;;5.50;5.00;;;24.50;81.50;;;;;;4894368;29;20465;-94
2021/07/09 16:16:29;;;;;;;6.30;5.70;;;24.70;81.80;;;;;;4890548;29;20471;-93
2021/07/09 16:19:27;;;;;;;5.97;5.37;;;24.80;82.30;;;;;;4891708;29;20491;-93
2021/07/09 16:24:48;;;;;;;6.33;5.77;;;24.80;82.70;;;;;;4872461;29;20994;-92
2021/07/09 16:27:29;;;;;;;6.43;5.90;;;24.80;82.80;;;;;;4873027;29;20481;-92
2021/07/09 16:30:09;;;;;;;7.07;6.33;;;24.70;83.00;;;;;;4879883;29;20929;-93
2021/07/09 16:32:50;;;;;;;7.93;7.20;;;24.60;83.30;;;;;;4893065;29;20508;-92
2021/07/09 16:35:26;;;;;;;7.10;6.43;;;24.50;85.90;;;;;;4893271;29;20447;-93
2021/07/09 16:38:15;;;;;;;8.23;7.53;;;24.40;86.60;;;;;;4889973;29;20456;-93
2021/07/09 16:40:52;;;;;;;8.07;7.30;;;24.30;86.70;;;;;;4891480;29;20484;-92
2021/07/09 16:43:27;;;;;;;7.10;6.37;;;24.20;87.20;;;;;;4903877;29;20467;-91
2021/07/09 16:45:56;;;;;;;6.60;6.17;;;24.20;87.50;;;;;;4899783;29;20421;-93
2021/07/09 16:48:26;;;;;;;6.47;5.97;;;24.10;86.70;;;;;;4903782;29;20498;-91
2021/07/09 16:51:03;;;;;;;6.97;6.47;;;24.10;85.90;;;;;;4902171;29;20469;-92
2021/07/09 16:53:32;;;;;;;6.20;5.80;;;24.20;86.40;;;;;;4903437;29;20428;-93
2021/07/09 16:56:01;;;;;;;5.87;5.37;;;24.10;85.00;;;;;;4890224;29;20455;-92
2021/07/09 16:58:43;;;;;;;5.13;4.73;;;23.90;84.50;;;;;;4889724;29;20471;-93
2021/07/09 17:01:30;;;;;;;4.70;4.30;;;23.80;84.20;;;;;;4888925;29;20559;-93
2021/07/09 17:04:11;;;;;;;5.53;4.63;;;23.60;84.70;;;;;;4898474;29;20462;-91
2021/07/09 17:13:17;;;;;;;3.90;3.47;;;22.90;84.30;;;;;;4896490;29;20442;-93
2021/07/09 17:15:54;;;;;;;3.90;3.60;;;22.60;83.70;;;;;;4903530;29;20510;-93
2021/07/09 17:18:27;;;;;;;3.83;3.53;;;22.40;84.30;;;;;;4901904;29;20460;-92
2021/07/09 17:23:57;;;;;;;4.90;4.60;;;22.20;85.30;;;;;;4897769;29;20445;-93
2021/07/09 17:26:51;;;;;;;4.70;4.33;;;22.10;86.70;;;;;;4891381;29;20822;-93
2021/07/09 17:29:37;;;;;;;5.00;4.60;;;22.00;87.20;;;;;;4886499;29;20526;-94
2021/07/09 17:32:21;;;;;;;5.30;4.77;;;22.00;88.00;;;;;;4897621;29;20443;-91
2021/07/09 17:34:58;;;;;;;5.67;5.27;;;22.00;88.70;;;;;;4897467;29;20830;-93
2021/07/09 17:37:34;;;;;;;7.20;6.50;;;21.90;89.20;;;;;;4888524;29;20457;-93
2021/07/09 17:40:24;;;;;;;6.27;5.73;;;21.80;90.40;;;;;;4890094;29;20772;-93
2021/07/09 17:57:07;;;;;;;;;;;;;;;;;;;;;
2021/07/09 18:16:33;;;;;;;10.87;9.43;;;21.10;96.30;;;;;;4895083;29;20536;-92
2021/07/09 18:19:06;;;;;;;8.77;8.07;;;21.10;96.60;;;;;;4893921;29;20463;-93
2021/07/09 18:21:45;;;;;;;8.50;7.77;;;21.10;96.70;;;;;;4891488;29;20494;-92
2021/07/09 18:24:22;;;;;;;10.53;9.67;;;21.10;96.90;;;;;;4891404;29;20445;-92
2021/07/09 18:26:58;;;;;;;10.10;9.30;;;21.00;97.10;;;;;;4889896;29;20488;-92
2021/07/09 18:29:59;;;;;;;9.60;8.73;;;21.10;97.50;;;;;;4901018;28;20468;-90
2021/07/09 18:33:02;;;;;;;10.30;9.37;;;21.00;97.60;;;;;;4912051;28;20440;-94
2021/07/09 18:36:03;;;;;;;10.20;9.30;;;21.10;97.90;;;;;;4900873;29;20444;-93
2021/07/09 18:41:37;;;;;;;12.80;11.50;;;21.10;98.40;;;;;;4880815;29;20482;-94
2021/07/09 18:47:11;;;;;;;10.30;9.30;;;21.10;99.00;;;;;;4879110;29;20450;-94
2021/07/09 18:53:05;;;;;;;9.83;9.03;;;21.00;99.60;;;;;;4877611;29;20447;-94
2021/07/09 18:55:54;;;;;;;10.07;9.07;;;21.00;99.90;;;;;;4876933;29;20461;-93
2021/07/09 19:29:08;;;;;;;9.90;9.20;;;20.80;99.90;;;;;;4772344;30;20454;-93
2021/07/09 19:54:11;;;;;;;10.37;9.40;;;19.90;99.90;;;;;;4915318;24;20490;-93
2021/07/09 20:00:29;;;;;;;13.43;12.13;;;19.70;99.90;;;;;;4959906;23;20534;-93
2021/07/09 20:33:21;;;;;;;15.23;13.63;;;19.10;99.90;;;;;;2855343;23;20494;-90
2021/07/09 20:35:48;;;;;;;13.23;12.13;;;19.00;99.90;;;;;;4875066;29;20509;-89
2021/07/09 20:38:16;;;;;;;13.77;12.53;;;19.00;99.90;;;;;;4887081;29;20474;-92
2021/07/09 20:40:48;;;;;;;14.70;13.10;;;18.90;99.90;;;;;;4882469;29;20546;-91
2021/07/09 20:43:15;;;;;;;14.30;13.10;;;18.90;99.90;;;;;;4880963;29;20462;-92
2021/07/09 20:45:46;;;;;;;12.73;11.60;;;19.00;99.90;;;;;;4882645;29;20455;-92
2021/07/09 20:48:15;;;;;;;12.20;11.10;;;19.00;99.90;;;;;;4885041;29;20470;-92
2021/07/09 20:50:48;;;;;;;13.50;12.30;;;19.00;99.90;;;;;;4870091;29;20462;-92
2021/07/09 20:53:15;;;;;;;13.40;12.20;;;19.00;99.90;;;;;;4881177;29;20441;-92
2021/07/09 20:55:43;;;;;;;14.50;13.27;;;18.80;99.90;;;;;;4885590;29;20431;-92
2021/07/09 20:58:20;;;;;;;15.47;13.87;;;18.80;99.90;;;;;;4882919;29;20529;-92
2021/07/09 21:00:56;;;;;;;14.70;13.40;;;18.80;99.90;;;;;;4883189;29;20486;-92
2021/07/09 21:03:27;;;;;;;14.20;12.90;;;18.70;99.90;;;;;;4884404;29;20443;-92
2021/07/09 21:06:03;;;;;;;14.43;13.00;;;18.60;99.90;;;;;;4885230;29;20561;-92
2021/07/09 21:08:33;;;;;;;16.67;15.07;;;18.60;99.90;;;;;;4885002;29;20570;-91
2021/07/09 21:11:02;;;;;;;17.33;15.63;;;18.70;99.90;;;;;;4884932;29;20446;-92
2021/07/09 21:13:34;;;;;;;17.37;15.80;;;18.60;99.90;;;;;;4873441;29;20890;-92
2021/07/09 21:16:03;;;;;;;17.47;15.80;;;18.50;99.90;;;;;;4882553;29;20472;-94
2021/07/09 21:18:32;;;;;;;17.70;16.10;;;18.50;99.90;;;;;;4886181;29;20488;-91
2021/07/09 21:21:02;;;;;;;17.63;16.00;;;18.50;99.90;;;;;;4886187;29;20492;-91
2021/07/09 21:23:29;;;;;;;21.70;19.20;;;18.40;99.90;;;;;;4885192;29;20446;-91
2021/07/09 21:25:55;;;;;;;19.90;17.47;;;18.30;99.90;;;;;;4882693;29;20461;-91
2021/07/09 21:28:22;;;;;;;20.07;18.17;;;18.30;99.90;;;;;;4883473;29;20489;-92
2021/07/09 21:30:52;;;;;;;19.47;17.10;;;18.30;99.90;;;;;;4881666;29;20433;-91
2021/07/09 21:33:22;;;;;;;20.10;18.00;;;18.30;99.90;;;;;;4883592;29;20524;-91
2021/07/09 21:35:49;;;;;;;18.47;16.57;;;18.20;99.90;;;;;;4879348;29;20541;-91
2021/07/09 21:38:17;;;;;;;17.70;15.90;;;18.20;99.90;;;;;;4880331;29;20478;-92
2021/07/09 21:40:44;;;;;;;17.00;15.30;;;18.10;99.90;;;;;;4878344;29;20520;-92
2021/07/09 21:43:13;;;;;;;18.23;16.63;;;18.10;99.90;;;;;;4858162;29;20461;-92
2021/07/09 21:45:40;;;;;;;16.17;14.57;;;18.00;99.90;;;;;;4871433;29;20525;-91
2021/07/09 21:50:35;;;;;;;17.20;15.70;;;18.00;99.90;;;;;;4863363;29;20504;-83
2021/07/09 21:53:02;;;;;;;15.77;14.43;;;18.00;99.90;;;;;;4872541;29;20454;-87
2021/07/09 21:55:31;;;;;;;17.13;15.50;;;18.00;99.90;;;;;;4862914;29;21030;-89
2021/07/09 21:57:58;;;;;;;16.10;14.70;;;18.00;99.90;;;;;;4855176;29;20443;-90
2021/07/09 22:00:25;;;;;;;16.90;15.20;;;18.00;99.90;;;;;;4854259;29;20473;-90
2021/07/09 22:03:05;;;;;;;16.43;14.93;;;17.90;99.90;;;;;;4860204;29;20454;-90
2021/07/09 22:05:34;;;;;;;14.83;13.53;;;17.90;99.90;;;;;;4856802;29;20515;-90
2021/07/09 22:08:16;;;;;;;16.00;14.53;;;17.90;99.90;;;;;;4855806;29;20457;-91
2021/07/09 22:10:58;;;;;;;15.57;14.30;;;18.00;99.90;;;;;;4848866;29;20435;-91
2021/07/09 22:13:38;;;;;;;14.90;13.50;;;17.90;99.90;;;;;;4862664;29;20528;-90
2021/07/09 22:16:14;;;;;;;15.07;13.57;;;17.80;99.90;;;;;;4859138;29;20511;-90
2021/07/09 22:18:48;;;;;;;14.63;13.43;;;17.80;99.90;;;;;;4862912;29;20994;-91
2021/07/09 22:21:23;;;;;;;16.07;14.67;;;17.80;99.90;;;;;;4860342;29;20476;-91
2021/07/09 22:26:35;;;;;;;16.33;14.67;;;17.70;99.90;;;;;;4865703;29;20962;-91
2021/07/09 22:29:04;;;;;;;16.37;14.77;;;17.70;99.90;;;;;;4863635;29;20485;-91
2021/07/09 22:31:31;;;;;;;17.10;15.50;;;17.80;99.90;;;;;;4879353;29;20434;-91
2021/07/09 22:34:02;;;;;;;18.43;16.83;;;17.70;99.90;;;;;;4878770;29;20448;-91
2021/07/09 22:36:29;;;;;;;17.40;15.80;;;17.60;99.90;;;;;;4851499;29;20526;-91
2021/07/09 22:39:00;;;;;;;17.30;15.50;;;17.60;99.90;;;;;;4866414;29;20477;-91
2021/07/09 22:41:27;;;;;;;18.10;16.20;;;17.60;99.90;;;;;;4864685;29;20489;-91
2021/07/09 22:43:58;;;;;;;16.80;15.30;;;17.60;99.90;;;;;;4862217;29;20492;-91
2021/07/09 22:46:25;;;;;;;19.60;17.50;;;17.70;99.90;;;;;;4850877;29;20461;-91
2021/07/09 22:48:53;;;;;;;16.63;15.03;;;17.70;99.90;;;;;;4862366;29;20478;-91
2021/07/09 22:51:20;;;;;;;16.13;14.63;;;17.70;99.90;;;;;;4877865;29;20442;-91
2021/07/09 22:53:47;;;;;;;18.17;16.47;;;17.70;99.90;;;;;;4866655;29;20489;-92
2021/07/09 22:56:18;;;;;;;17.50;16.10;;;17.70;99.90;;;;;;4869827;29;20532;-91
2021/07/09 22:58:47;;;;;;;16.90;15.40;;;17.60;99.90;;;;;;4884368;29;20465;-92
2021/07/09 23:01:18;;;;;;;16.97;15.47;;;17.60;99.90;;;;;;4882633;29;20473;-93
2021/07/09 23:03:46;;;;;;;18.83;16.50;;;17.50;99.90;;;;;;4869734;29;20451;-91
2021/07/09 23:06:16;;;;;;;19.93;17.97;;;17.50;99.90;;;;;;4864391;29;20449;-89
2021/07/09 23:08:56;;;;;;;17.80;16.00;;;17.50;99.90;;;;;;4877011;29;20455;-90
2021/07/09 23:11:40;;;;;;;17.57;15.97;;;17.40;99.90;;;;;;4883015;29;20442;-89
2021/07/09 23:14:16;;;;;;;17.30;15.67;;;17.40;99.90;;;;;;4880570;29;20482;-90
2021/07/09 23:17:10;;;;;;;17.97;16.07;;;17.30;99.90;;;;;;4883862;29;20464;-90
2021/07/09 23:19:37;;;;;;;18.93;16.93;;;17.30;99.90;;;;;;4869610;29;20555;-91
2021/07/09 23:22:09;;;;;;;16.50;14.90;;;17.30;99.90;;;;;;4865768;29;21007;-91
2021/07/09 23:27:27;;;;;;;18.23;16.47;;;17.20;99.90;;;;;;4867343;29;20456;-91
2021/07/09 23:29:57;;;;;;;19.40;17.47;;;17.20;99.90;;;;;;4883675;29;20452;-91
2021/07/09 23:32:28;;;;;;;18.13;16.33;;;17.20;99.90;;;;;;4885580;29;20447;-91
2021/07/09 23:34:59;;;;;;;19.80;17.90;;;17.20;99.90;;;;;;4874354;29;20453;-91
2021/07/09 23:37:31;;;;;;;18.23;16.33;;;17.10;99.90;;;;;;4878778;29;20484;-90